This is the latest recevied weather packets stored in our database for station/object NK0Z-13. If no packets are shown the sender has not sent any weather packets the latest 1 day(s).
| Time | Temp. | Humidity | Pressure | Rain* | Wind** | Luminosity | Snow |
|---|---|---|---|---|---|---|---|
| 1778039515 | 6.67° C | 91% | 1017.3 hPa | 0.51 mm | - | 0 W/m² | - |
| 1778038915 | 7.22° C | 90% | 1017.3 hPa | 0.51 mm | - | 0 W/m² | - |
| 1778037114 | 7.78° C | 83% | 1017.3 hPa | 0.51 mm | - | 0 W/m² | - |
| 1778036509 | 8.89° C | 78% | 1016.8 hPa | 0.51 mm | - | 0 W/m² | - |
| 1778035908 | 9.44° C | 75% | 1017.4 hPa | 0 mm | - | 0 W/m² | - |
| 1778035308 | 9.44° C | 75% | 1017 hPa | 0 mm | - | 0 W/m² | - |
| 1778034707 | 9.44° C | 77% | 1016.7 hPa | 0 mm | - | 0 W/m² | - |
| 1778034107 | 9.44° C | 77% | 1016.9 hPa | 0 mm | - | 0 W/m² | - |
| 1778033502 | 8.89° C | 81% | 1016.5 hPa | 0 mm | - | 0 W/m² | - |
| 1778032297 | 9.44° C | 79% | 1016.5 hPa | 0 mm | - | 0 W/m² | - |
| 1778031696 | 9.44° C | 79% | 1016 hPa | 0 mm | - | 0 W/m² | - |
| 1778031091 | 9.44° C | 77% | 1015.5 hPa | 0 mm | - | 0 W/m² | - |
| 1778030490 | 9.44° C | 77% | 1015.3 hPa | 0 mm | - | 1 W/m² | - |
| 1778029889 | 9.44° C | 76% | 1015.1 hPa | 0 mm | - | 4 W/m² | - |
| 1778029285 | 10° C | 75% | 1014.9 hPa | 0 mm | - | 6 W/m² | - |
| 1778028684 | 10° C | 74% | 1015.2 hPa | 0 mm | - | 7 W/m² | - |
| 1778028084 | 10° C | 75% | 1014.7 hPa | 0 mm | - | 14 W/m² | - |
| 1778027482 | 10° C | 74% | 1014.7 hPa | 0 mm | - | 25 W/m² | - |
| 1778026880 | 10.56° C | 69% | 1014.8 hPa | 0 mm | - | 35 W/m² | - |
| 1778026279 | 10.56° C | 67% | 1014.7 hPa | 0 mm | - | 23 W/m² | - |
| 1778022659 | 11.67° C | 60% | 1014.4 hPa | 0 mm | - | 203 W/m² | - |
| 1778022058 | 11.67° C | 60% | 1014.4 hPa | 0 mm | - | 207 W/m² | - |
| 1778019053 | 11.67° C | 61% | 1014.4 hPa | 0 mm | - | 214 W/m² | - |
| 1778017244 | 12.22° C | 60% | 1014.3 hPa | 0 mm | - | 234 W/m² | - |
| 1778016044 | 12.78° C | 57% | 1014.1 hPa | 0 mm | - | 326 W/m² | - |
* Rain latest hour (hover to see other rain measurements)
** Current wind speed in m/s (hover to see current wind gust speed)